Terminal Aerodrome Forecast
Issued by NWS

Home | Current Version | Previous Version | Text Only | Print | Product List | Glossary On
Versions: 1 2 3 4 5 6 7 8 9 10 11 12 13 14 15 16 17 18 19 20 21
000
FTUS44 KLZK 240700 AAA
TAFPBF
TAF AMD
KPBF 240733Z 2408/2506 34003KT P6SM BKN008
      TEMPO 2410/2413 3SM BR
     FM241300 03006KT P6SM SCT250
     FM241900 05009KT P6SM FEW250=

USA.gov is the U.S. government's official web portal to all federal, state and local government web resources and services.